sensor_id;sensor_type;location;lat;lon;timestamp;temperature;humidity
35960;DHT22;22043;50.970;7.192;2022-09-06T00:01:07;19.90;99.90
35960;DHT22;22043;50.970;7.192;2022-09-06T00:03:33;19.90;99.90
35960;DHT22;22043;50.970;7.192;2022-09-06T00:06:03;19.90;99.90
35960;DHT22;22043;50.970;7.192;2022-09-06T00:08:29;19.90;99.90
35960;DHT22;22043;50.970;7.192;2022-09-06T00:10:58;19.80;99.90
35960;DHT22;22043;50.970;7.192;2022-09-06T00:13:24;19.90;99.90
35960;DHT22;22043;50.970;7.192;2022-09-06T00:15:49;19.90;99.90
35960;DHT22;22043;50.970;7.192;2022-09-06T00:18:15;19.90;99.90
35960;DHT22;22043;50.970;7.192;2022-09-06T00:20:41;19.90;99.90
35960;DHT22;22043;50.970;7.192;2022-09-06T00:23:07;19.80;99.90
35960;DHT22;22043;50.970;7.192;2022-09-06T00:25:33;19.80;99.90
35960;DHT22;22043;50.970;7.192;2022-09-06T00:28:02;19.80;99.90
35960;DHT22;22043;50.970;7.192;2022-09-06T00:30:29;19.80;99.90
35960;DHT22;22043;50.970;7.192;2022-09-06T00:32:56;19.80;99.90
35960;DHT22;22043;50.970;7.192;2022-09-06T00:35:23;19.70;99.90
35960;DHT22;22043;50.970;7.192;2022-09-06T00:37:50;19.70;99.90
35960;DHT22;22043;50.970;7.192;2022-09-06T00:40:16;19.70;99.90
35960;DHT22;22043;50.970;7.192;2022-09-06T00:42:42;19.70;99.90
35960;DHT22;22043;50.970;7.192;2022-09-06T00:45:09;19.70;99.90
35960;DHT22;22043;50.970;7.192;2022-09-06T00:47:37;19.70;99.90
35960;DHT22;22043;50.970;7.192;2022-09-06T00:50:05;19.80;99.90
35960;DHT22;22043;50.970;7.192;2022-09-06T00:52:32;19.80;99.90
35960;DHT22;22043;50.970;7.192;2022-09-06T00:54:58;19.90;99.90
35960;DHT22;22043;50.970;7.192;2022-09-06T00:57:25;19.90;99.90
35960;DHT22;22043;50.970;7.192;2022-09-06T00:59:53;19.90;99.90
35960;DHT22;22043;50.970;7.192;2022-09-06T01:02:19;19.90;99.90
35960;DHT22;22043;50.970;7.192;2022-09-06T01:04:46;19.90;99.90
35960;DHT22;22043;50.970;7.192;2022-09-06T01:15:29;19.80;99.90
35960;DHT22;22043;50.970;7.192;2022-09-06T01:24:22;19.70;99.90
35960;DHT22;22043;50.970;7.192;2022-09-06T01:29:49;19.60;99.90
35960;DHT22;22043;50.970;7.192;2022-09-06T01:32:40;19.50;99.90
35960;DHT22;22043;50.970;7.192;2022-09-06T01:37:54;19.50;99.90
35960;DHT22;22043;50.970;7.192;2022-09-06T01:40:20;19.50;99.90
35960;DHT22;22043;50.970;7.192;2022-09-06T01:42:47;19.40;99.90
35960;DHT22;22043;50.970;7.192;2022-09-06T01:45:17;19.50;99.90
35960;DHT22;22043;50.970;7.192;2022-09-06T01:48:02;19.50;99.90
35960;DHT22;22043;50.970;7.192;2022-09-06T01:50:44;19.50;99.90
35960;DHT22;22043;50.970;7.192;2022-09-06T01:53:21;19.40;99.90
35960;DHT22;22043;50.970;7.192;2022-09-06T02:06:38;19.30;99.90
35960;DHT22;22043;50.970;7.192;2022-09-06T02:09:08;19.30;99.90
35960;DHT22;22043;50.970;7.192;2022-09-06T02:11:51;19.30;99.90
35960;DHT22;22043;50.970;7.192;2022-09-06T02:16:55;19.20;99.90
35960;DHT22;22043;50.970;7.192;2022-09-06T02:19:47;19.10;99.90
35960;DHT22;22043;50.970;7.192;2022-09-06T02:22:17;19.10;99.90
35960;DHT22;22043;50.970;7.192;2022-09-06T02:24:46;19.10;99.90
35960;DHT22;22043;50.970;7.192;2022-09-06T02:27:13;19.10;99.90
35960;DHT22;22043;50.970;7.192;2022-09-06T02:29:39;19.10;99.90
35960;DHT22;22043;50.970;7.192;2022-09-06T02:34:40;19.00;99.90
35960;DHT22;22043;50.970;7.192;2022-09-06T02:37:06;19.00;99.90
35960;DHT22;22043;50.970;7.192;2022-09-06T02:39:33;19.00;99.90
35960;DHT22;22043;50.970;7.192;2022-09-06T02:41:59;18.90;99.90
35960;DHT22;22043;50.970;7.192;2022-09-06T02:44:25;18.90;99.90
35960;DHT22;22043;50.970;7.192;2022-09-06T02:46:51;18.90;99.90
35960;DHT22;22043;50.970;7.192;2022-09-06T02:49:17;18.80;99.90
35960;DHT22;22043;50.970;7.192;2022-09-06T02:51:42;18.80;99.90
35960;DHT22;22043;50.970;7.192;2022-09-06T02:54:08;18.80;99.90
35960;DHT22;22043;50.970;7.192;2022-09-06T02:56:34;18.70;99.90
35960;DHT22;22043;50.970;7.192;2022-09-06T02:59:01;18.70;99.90
35960;DHT22;22043;50.970;7.192;2022-09-06T03:01:31;18.70;99.90
35960;DHT22;22043;50.970;7.192;2022-09-06T03:03:56;18.70;99.90
35960;DHT22;22043;50.970;7.192;2022-09-06T03:06:22;18.70;99.90
35960;DHT22;22043;50.970;7.192;2022-09-06T03:08:48;18.70;99.90
35960;DHT22;22043;50.970;7.192;2022-09-06T03:11:14;18.70;99.90
35960;DHT22;22043;50.970;7.192;2022-09-06T03:13:39;18.70;99.90
35960;DHT22;22043;50.970;7.192;2022-09-06T03:16:05;18.70;99.90
35960;DHT22;22043;50.970;7.192;2022-09-06T03:18:31;18.70;99.90
35960;DHT22;22043;50.970;7.192;2022-09-06T03:20:58;18.60;99.90
35960;DHT22;22043;50.970;7.192;2022-09-06T03:23:26;18.60;99.90
35960;DHT22;22043;50.970;7.192;2022-09-06T03:25:52;18.60;99.90
35960;DHT22;22043;50.970;7.192;2022-09-06T03:28:18;18.60;99.90
35960;DHT22;22043;50.970;7.192;2022-09-06T03:30:45;18.60;99.90
35960;DHT22;22043;50.970;7.192;2022-09-06T03:33:12;18.60;99.90
35960;DHT22;22043;50.970;7.192;2022-09-06T03:35:37;18.50;99.90
35960;DHT22;22043;50.970;7.192;2022-09-06T03:38:03;18.50;99.90
35960;DHT22;22043;50.970;7.192;2022-09-06T03:40:29;18.50;99.90
35960;DHT22;22043;50.970;7.192;2022-09-06T03:42:55;18.50;99.90
35960;DHT22;22043;50.970;7.192;2022-09-06T03:45:21;18.40;99.90
35960;DHT22;22043;50.970;7.192;2022-09-06T03:47:46;18.40;99.90
35960;DHT22;22043;50.970;7.192;2022-09-06T03:50:12;18.40;99.90
35960;DHT22;22043;50.970;7.192;2022-09-06T03:52:39;18.40;99.90
35960;DHT22;22043;50.970;7.192;2022-09-06T03:55:05;18.40;99.90
35960;DHT22;22043;50.970;7.192;2022-09-06T03:57:31;18.40;99.90
35960;DHT22;22043;50.970;7.192;2022-09-06T03:59:57;18.30;99.90
35960;DHT22;22043;50.970;7.192;2022-09-06T04:02:23;18.40;99.90
35960;DHT22;22043;50.970;7.192;2022-09-06T04:04:48;18.30;99.90
35960;DHT22;22043;50.970;7.192;2022-09-06T04:07:14;18.30;99.90
35960;DHT22;22043;50.970;7.192;2022-09-06T04:09:40;18.20;99.90
35960;DHT22;22043;50.970;7.192;2022-09-06T04:12:05;18.20;99.90
35960;DHT22;22043;50.970;7.192;2022-09-06T04:14:31;18.20;99.90
35960;DHT22;22043;50.970;7.192;2022-09-06T04:16:57;18.20;99.90
35960;DHT22;22043;50.970;7.192;2022-09-06T04:19:22;18.10;99.90
35960;DHT22;22043;50.970;7.192;2022-09-06T04:21:48;18.10;99.90
35960;DHT22;22043;50.970;7.192;2022-09-06T04:24:14;18.00;99.90
35960;DHT22;22043;50.970;7.192;2022-09-06T04:26:40;18.00;99.90
35960;DHT22;22043;50.970;7.192;2022-09-06T04:29:05;18.00;99.90
35960;DHT22;22043;50.970;7.192;2022-09-06T04:31:31;18.00;99.90
35960;DHT22;22043;50.970;7.192;2022-09-06T04:33:57;18.00;99.90
35960;DHT22;22043;50.970;7.192;2022-09-06T04:36:22;17.90;99.90
35960;DHT22;22043;50.970;7.192;2022-09-06T04:38:48;17.90;99.90
35960;DHT22;22043;50.970;7.192;2022-09-06T04:41:15;17.90;99.90
35960;DHT22;22043;50.970;7.192;2022-09-06T04:43:41;17.90;99.90
35960;DHT22;22043;50.970;7.192;2022-09-06T04:46:23;17.90;99.90
35960;DHT22;22043;50.970;7.192;2022-09-06T04:48:50;17.90;99.90
35960;DHT22;22043;50.970;7.192;2022-09-06T04:51:17;17.90;99.90
35960;DHT22;22043;50.970;7.192;2022-09-06T04:53:43;17.90;99.90
35960;DHT22;22043;50.970;7.192;2022-09-06T04:56:14;17.90;99.90
35960;DHT22;22043;50.970;7.192;2022-09-06T04:58:41;17.90;99.90
35960;DHT22;22043;50.970;7.192;2022-09-06T05:01:07;17.90;99.90
35960;DHT22;22043;50.970;7.192;2022-09-06T05:03:33;17.90;99.90
35960;DHT22;22043;50.970;7.192;2022-09-06T05:06:06;17.90;99.90
35960;DHT22;22043;50.970;7.192;2022-09-06T05:08:31;17.90;99.90
35960;DHT22;22043;50.970;7.192;2022-09-06T05:10:57;17.90;99.90
35960;DHT22;22043;50.970;7.192;2022-09-06T05:13:23;17.90;99.90
35960;DHT22;22043;50.970;7.192;2022-09-06T05:15:48;17.90;99.90
35960;DHT22;22043;50.970;7.192;2022-09-06T05:18:14;17.90;99.90
35960;DHT22;22043;50.970;7.192;2022-09-06T05:20:40;17.90;99.90
35960;DHT22;22043;50.970;7.192;2022-09-06T05:23:05;17.90;99.90
35960;DHT22;22043;50.970;7.192;2022-09-06T05:25:31;17.90;99.90
35960;DHT22;22043;50.970;7.192;2022-09-06T05:27:56;17.90;99.90
35960;DHT22;22043;50.970;7.192;2022-09-06T05:30:22;17.90;99.90
35960;DHT22;22043;50.970;7.192;2022-09-06T05:32:49;17.80;99.90
35960;DHT22;22043;50.970;7.192;2022-09-06T05:35:15;17.90;99.90
35960;DHT22;22043;50.970;7.192;2022-09-06T05:37:41;17.80;99.90
35960;DHT22;22043;50.970;7.192;2022-09-06T05:40:07;17.90;99.90
35960;DHT22;22043;50.970;7.192;2022-09-06T05:42:32;17.80;99.90
35960;DHT22;22043;50.970;7.192;2022-09-06T05:44:58;17.80;99.90
35960;DHT22;22043;50.970;7.192;2022-09-06T05:47:24;17.90;99.90
35960;DHT22;22043;50.970;7.192;2022-09-06T05:49:49;17.80;99.90
35960;DHT22;22043;50.970;7.192;2022-09-06T05:52:16;17.90;99.90
35960;DHT22;22043;50.970;7.192;2022-09-06T05:54:42;17.90;99.90
35960;DHT22;22043;50.970;7.192;2022-09-06T05:57:08;17.90;99.90
35960;DHT22;22043;50.970;7.192;2022-09-06T05:59:34;17.90;99.90
35960;DHT22;22043;50.970;7.192;2022-09-06T06:01:59;17.90;99.90
35960;DHT22;22043;50.970;7.192;2022-09-06T06:04:25;17.90;99.90
35960;DHT22;22043;50.970;7.192;2022-09-06T06:06:50;18.00;99.90
35960;DHT22;22043;50.970;7.192;2022-09-06T06:09:16;18.00;99.90
35960;DHT22;22043;50.970;7.192;2022-09-06T06:11:42;18.00;99.90
35960;DHT22;22043;50.970;7.192;2022-09-06T06:14:08;18.00;99.90
35960;DHT22;22043;50.970;7.192;2022-09-06T06:16:34;18.10;99.90
35960;DHT22;22043;50.970;7.192;2022-09-06T06:19:00;18.20;99.90
35960;DHT22;22043;50.970;7.192;2022-09-06T06:21:29;18.20;99.90
35960;DHT22;22043;50.970;7.192;2022-09-06T06:24:00;18.20;99.90
35960;DHT22;22043;50.970;7.192;2022-09-06T06:26:27;18.30;99.90
35960;DHT22;22043;50.970;7.192;2022-09-06T06:28:53;18.30;99.90
35960;DHT22;22043;50.970;7.192;2022-09-06T06:31:20;18.40;99.90
35960;DHT22;22043;50.970;7.192;2022-09-06T06:33:47;18.40;99.90
35960;DHT22;22043;50.970;7.192;2022-09-06T06:38:40;18.40;99.90
35960;DHT22;22043;50.970;7.192;2022-09-06T06:41:07;18.50;99.90
35960;DHT22;22043;50.970;7.192;2022-09-06T06:43:34;18.50;99.90
35960;DHT22;22043;50.970;7.192;2022-09-06T06:46:08;18.50;99.90
35960;DHT22;22043;50.970;7.192;2022-09-06T06:48:35;18.60;99.90
35960;DHT22;22043;50.970;7.192;2022-09-06T06:51:01;18.60;99.90
35960;DHT22;22043;50.970;7.192;2022-09-06T06:53:27;18.60;99.90
35960;DHT22;22043;50.970;7.192;2022-09-06T06:55:53;18.70;99.90
35960;DHT22;22043;50.970;7.192;2022-09-06T06:58:19;18.70;99.90
35960;DHT22;22043;50.970;7.192;2022-09-06T07:00:45;18.80;99.90
35960;DHT22;22043;50.970;7.192;2022-09-06T07:03:12;18.80;99.90
35960;DHT22;22043;50.970;7.192;2022-09-06T07:05:39;18.80;99.90
35960;DHT22;22043;50.970;7.192;2022-09-06T07:08:08;18.90;99.90
35960;DHT22;22043;50.970;7.192;2022-09-06T07:10:34;18.90;99.90
35960;DHT22;22043;50.970;7.192;2022-09-06T07:13:00;18.90;99.90
35960;DHT22;22043;50.970;7.192;2022-09-06T07:15:25;19.00;99.90
35960;DHT22;22043;50.970;7.192;2022-09-06T07:17:54;19.00;99.90
35960;DHT22;22043;50.970;7.192;2022-09-06T07:20:19;19.00;99.90
35960;DHT22;22043;50.970;7.192;2022-09-06T07:22:45;19.10;99.90
35960;DHT22;22043;50.970;7.192;2022-09-06T07:25:12;19.10;99.90
35960;DHT22;22043;50.970;7.192;2022-09-06T07:27:38;19.10;99.90
35960;DHT22;22043;50.970;7.192;2022-09-06T07:30:04;19.20;99.90
35960;DHT22;22043;50.970;7.192;2022-09-06T07:32:33;19.20;99.90
35960;DHT22;22043;50.970;7.192;2022-09-06T07:34:59;19.30;99.90
35960;DHT22;22043;50.970;7.192;2022-09-06T07:37:24;19.30;99.90
35960;DHT22;22043;50.970;7.192;2022-09-06T07:39:50;19.40;99.90
35960;DHT22;22043;50.970;7.192;2022-09-06T07:42:16;19.40;99.90
35960;DHT22;22043;50.970;7.192;2022-09-06T07:44:41;19.40;99.90
35960;DHT22;22043;50.970;7.192;2022-09-06T07:47:07;19.50;99.90
35960;DHT22;22043;50.970;7.192;2022-09-06T07:49:34;19.60;99.90
35960;DHT22;22043;50.970;7.192;2022-09-06T07:52:00;19.60;99.90
35960;DHT22;22043;50.970;7.192;2022-09-06T07:54:26;19.60;99.90
35960;DHT22;22043;50.970;7.192;2022-09-06T07:56:51;19.70;99.90
35960;DHT22;22043;50.970;7.192;2022-09-06T07:59:17;19.80;99.90
35960;DHT22;22043;50.970;7.192;2022-09-06T08:01:43;19.80;99.90
35960;DHT22;22043;50.970;7.192;2022-09-06T08:04:10;19.80;99.90
35960;DHT22;22043;50.970;7.192;2022-09-06T08:06:44;19.90;99.90
35960;DHT22;22043;50.970;7.192;2022-09-06T08:09:14;19.90;99.90
35960;DHT22;22043;50.970;7.192;2022-09-06T08:11:39;19.90;99.90
35960;DHT22;22043;50.970;7.192;2022-09-06T08:14:07;19.90;99.90
35960;DHT22;22043;50.970;7.192;2022-09-06T08:16:33;19.90;99.90
35960;DHT22;22043;50.970;7.192;2022-09-06T08:19:02;20.00;99.90
35960;DHT22;22043;50.970;7.192;2022-09-06T08:21:30;20.00;99.90
35960;DHT22;22043;50.970;7.192;2022-09-06T08:24:07;20.10;99.90
35960;DHT22;22043;50.970;7.192;2022-09-06T08:26:35;20.10;99.90
35960;DHT22;22043;50.970;7.192;2022-09-06T08:29:05;20.10;99.90
35960;DHT22;22043;50.970;7.192;2022-09-06T08:31:33;20.10;99.90
35960;DHT22;22043;50.970;7.192;2022-09-06T08:34:00;20.20;99.90
35960;DHT22;22043;50.970;7.192;2022-09-06T08:36:26;20.20;99.90
35960;DHT22;22043;50.970;7.192;2022-09-06T08:38:55;20.10;99.90
35960;DHT22;22043;50.970;7.192;2022-09-06T08:41:30;20.20;99.90
35960;DHT22;22043;50.970;7.192;2022-09-06T08:44:05;20.20;99.90
35960;DHT22;22043;50.970;7.192;2022-09-06T08:46:56;20.20;99.90
35960;DHT22;22043;50.970;7.192;2022-09-06T08:49:25;20.20;99.90
35960;DHT22;22043;50.970;7.192;2022-09-06T08:51:58;20.30;99.90
35960;DHT22;22043;50.970;7.192;2022-09-06T08:54:40;20.40;99.90
35960;DHT22;22043;50.970;7.192;2022-09-06T08:59:48;20.40;99.90
35960;DHT22;22043;50.970;7.192;2022-09-06T09:02:20;20.40;99.90
35960;DHT22;22043;50.970;7.192;2022-09-06T09:04:52;20.40;99.90
35960;DHT22;22043;50.970;7.192;2022-09-06T09:07:42;20.40;99.90
35960;DHT22;22043;50.970;7.192;2022-09-06T09:10:16;20.40;99.90
35960;DHT22;22043;50.970;7.192;2022-09-06T09:12:45;20.40;99.90
35960;DHT22;22043;50.970;7.192;2022-09-06T09:15:14;20.40;99.90
35960;DHT22;22043;50.970;7.192;2022-09-06T09:17:40;20.40;99.90
35960;DHT22;22043;50.970;7.192;2022-09-06T09:20:06;20.40;99.90
35960;DHT22;22043;50.970;7.192;2022-09-06T09:22:33;20.40;99.90
35960;DHT22;22043;50.970;7.192;2022-09-06T09:25:00;20.40;99.90
35960;DHT22;22043;50.970;7.192;2022-09-06T09:27:27;20.50;99.90
35960;DHT22;22043;50.970;7.192;2022-09-06T09:32:35;20.50;99.90
35960;DHT22;22043;50.970;7.192;2022-09-06T09:37:40;20.60;99.90
35960;DHT22;22043;50.970;7.192;2022-09-06T09:40:16;20.60;99.90
35960;DHT22;22043;50.970;7.192;2022-09-06T09:42:43;20.70;99.90
35960;DHT22;22043;50.970;7.192;2022-09-06T09:45:24;20.70;99.90
35960;DHT22;22043;50.970;7.192;2022-09-06T09:47:50;20.90;99.90
35960;DHT22;22043;50.970;7.192;2022-09-06T09:50:30;20.90;99.90
35960;DHT22;22043;50.970;7.192;2022-09-06T09:53:07;20.90;99.90
35960;DHT22;22043;50.970;7.192;2022-09-06T09:55:34;20.90;99.90
35960;DHT22;22043;50.970;7.192;2022-09-06T09:58:00;20.90;99.90
35960;DHT22;22043;50.970;7.192;2022-09-06T10:00:34;21.00;99.90
35960;DHT22;22043;50.970;7.192;2022-09-06T10:03:14;20.90;99.90
35960;DHT22;22043;50.970;7.192;2022-09-06T10:05:41;21.00;99.90
35960;DHT22;22043;50.970;7.192;2022-09-06T10:08:11;21.00;99.90
35960;DHT22;22043;50.970;7.192;2022-09-06T10:10:41;21.10;99.90
35960;DHT22;22043;50.970;7.192;2022-09-06T10:13:25;21.20;99.90
35960;DHT22;22043;50.970;7.192;2022-09-06T10:15:54;21.30;99.90
35960;DHT22;22043;50.970;7.192;2022-09-06T10:18:31;21.50;99.90
35960;DHT22;22043;50.970;7.192;2022-09-06T10:21:10;21.40;99.90
35960;DHT22;22043;50.970;7.192;2022-09-06T10:24:12;21.50;99.90
35960;DHT22;22043;50.970;7.192;2022-09-06T10:26:43;21.40;99.90
35960;DHT22;22043;50.970;7.192;2022-09-06T10:29:12;21.30;99.90
35960;DHT22;22043;50.970;7.192;2022-09-06T10:39:48;21.70;99.90
35960;DHT22;22043;50.970;7.192;2022-09-06T10:42:18;21.70;99.90
35960;DHT22;22043;50.970;7.192;2022-09-06T10:48:15;21.70;99.90
35960;DHT22;22043;50.970;7.192;2022-09-06T10:50:49;21.50;99.90
35960;DHT22;22043;50.970;7.192;2022-09-06T10:59:26;21.40;99.90
35960;DHT22;22043;50.970;7.192;2022-09-06T11:04:35;21.30;99.90
35960;DHT22;22043;50.970;7.192;2022-09-06T11:07:22;21.40;99.90
35960;DHT22;22043;50.970;7.192;2022-09-06T11:15:11;21.60;99.90
35960;DHT22;22043;50.970;7.192;2022-09-06T11:17:54;21.50;99.90
35960;DHT22;22043;50.970;7.192;2022-09-06T11:20:28;21.50;99.90
35960;DHT22;22043;50.970;7.192;2022-09-06T11:28:55;21.80;99.90
35960;DHT22;22043;50.970;7.192;2022-09-06T11:31:28;21.90;99.90
35960;DHT22;22043;50.970;7.192;2022-09-06T11:34:17;21.90;99.90
35960;DHT22;22043;50.970;7.192;2022-09-06T11:41:49;21.60;99.90
35960;DHT22;22043;50.970;7.192;2022-09-06T11:47:45;21.60;99.90
35960;DHT22;22043;50.970;7.192;2022-09-06T12:00:46;21.50;99.90
35960;DHT22;22043;50.970;7.192;2022-09-06T12:06:31;21.50;99.90
35960;DHT22;22043;50.970;7.192;2022-09-06T12:08:57;21.50;99.90
35960;DHT22;22043;50.970;7.192;2022-09-06T12:16:22;22.00;99.90
35960;DHT22;22043;50.970;7.192;2022-09-06T12:21:39;21.90;99.90
35960;DHT22;22043;50.970;7.192;2022-09-06T12:24:08;21.90;99.90
35960;DHT22;22043;50.970;7.192;2022-09-06T12:26:51;21.80;99.90
35960;DHT22;22043;50.970;7.192;2022-09-06T12:29:30;21.70;99.90
35960;DHT22;22043;50.970;7.192;2022-09-06T12:31:57;21.70;99.90
35960;DHT22;22043;50.970;7.192;2022-09-06T12:34:28;21.80;99.90
35960;DHT22;22043;50.970;7.192;2022-09-06T12:37:00;22.00;99.90
35960;DHT22;22043;50.970;7.192;2022-09-06T12:39:28;22.00;99.90
35960;DHT22;22043;50.970;7.192;2022-09-06T12:41:56;22.00;99.90
35960;DHT22;22043;50.970;7.192;2022-09-06T12:44:36;21.90;99.90
35960;DHT22;22043;50.970;7.192;2022-09-06T12:47:08;21.80;99.90
35960;DHT22;22043;50.970;7.192;2022-09-06T12:49:35;21.70;99.90
35960;DHT22;22043;50.970;7.192;2022-09-06T12:52:06;21.70;99.90
35960;DHT22;22043;50.970;7.192;2022-09-06T12:54:32;21.70;99.90
35960;DHT22;22043;50.970;7.192;2022-09-06T12:57:13;21.70;99.90
35960;DHT22;22043;50.970;7.192;2022-09-06T12:59:50;21.70;99.90
35960;DHT22;22043;50.970;7.192;2022-09-06T13:02:21;21.70;99.90
35960;DHT22;22043;50.970;7.192;2022-09-06T13:04:51;21.80;99.90
35960;DHT22;22043;50.970;7.192;2022-09-06T13:07:19;21.90;99.90
35960;DHT22;22043;50.970;7.192;2022-09-06T13:09:48;21.90;99.90
35960;DHT22;22043;50.970;7.192;2022-09-06T13:12:32;22.00;99.90
35960;DHT22;22043;50.970;7.192;2022-09-06T13:15:10;22.00;99.90
35960;DHT22;22043;50.970;7.192;2022-09-06T13:17:36;22.20;99.90
35960;DHT22;22043;50.970;7.192;2022-09-06T13:20:24;22.50;99.90
35960;DHT22;22043;50.970;7.192;2022-09-06T13:22:50;22.60;99.90
35960;DHT22;22043;50.970;7.192;2022-09-06T13:27:46;22.60;99.90
35960;DHT22;22043;50.970;7.192;2022-09-06T13:30:34;22.50;99.90
35960;DHT22;22043;50.970;7.192;2022-09-06T13:33:02;22.30;99.90
35960;DHT22;22043;50.970;7.192;2022-09-06T13:35:30;22.50;99.90
35960;DHT22;22043;50.970;7.192;2022-09-06T13:38:31;22.70;99.90
35960;DHT22;22043;50.970;7.192;2022-09-06T13:40:59;23.00;99.90
35960;DHT22;22043;50.970;7.192;2022-09-06T13:43:26;23.10;99.90
35960;DHT22;22043;50.970;7.192;2022-09-06T13:46:06;23.00;99.90
35960;DHT22;22043;50.970;7.192;2022-09-06T13:48:33;22.90;99.90
35960;DHT22;22043;50.970;7.192;2022-09-06T13:50:59;22.70;99.90
35960;DHT22;22043;50.970;7.192;2022-09-06T13:53:25;22.50;99.90
35960;DHT22;22043;50.970;7.192;2022-09-06T13:55:51;22.40;99.90
35960;DHT22;22043;50.970;7.192;2022-09-06T13:58:17;22.30;99.90
35960;DHT22;22043;50.970;7.192;2022-09-06T14:00:43;22.30;99.90
35960;DHT22;22043;50.970;7.192;2022-09-06T14:03:15;22.30;99.90
35960;DHT22;22043;50.970;7.192;2022-09-06T14:05:43;22.50;99.90
35960;DHT22;22043;50.970;7.192;2022-09-06T14:08:09;22.50;99.90
35960;DHT22;22043;50.970;7.192;2022-09-06T14:10:35;22.50;99.90
35960;DHT22;22043;50.970;7.192;2022-09-06T14:13:01;22.70;99.90
35960;DHT22;22043;50.970;7.192;2022-09-06T14:15:26;22.70;99.90
35960;DHT22;22043;50.970;7.192;2022-09-06T14:17:52;22.80;99.90
35960;DHT22;22043;50.970;7.192;2022-09-06T14:20:17;22.70;99.90
35960;DHT22;22043;50.970;7.192;2022-09-06T14:22:43;22.80;99.90
35960;DHT22;22043;50.970;7.192;2022-09-06T14:25:09;22.80;99.90
35960;DHT22;22043;50.970;7.192;2022-09-06T14:27:35;22.70;99.90
35960;DHT22;22043;50.970;7.192;2022-09-06T14:30:01;22.70;99.90
35960;DHT22;22043;50.970;7.192;2022-09-06T14:32:26;22.60;99.90
35960;DHT22;22043;50.970;7.192;2022-09-06T14:34:52;22.60;99.90
35960;DHT22;22043;50.970;7.192;2022-09-06T14:37:17;22.60;99.90
35960;DHT22;22043;50.970;7.192;2022-09-06T14:39:43;22.50;99.90
35960;DHT22;22043;50.970;7.192;2022-09-06T14:42:09;22.70;99.90
35960;DHT22;22043;50.970;7.192;2022-09-06T14:44:35;22.70;99.90
35960;DHT22;22043;50.970;7.192;2022-09-06T14:47:00;22.70;99.90
35960;DHT22;22043;50.970;7.192;2022-09-06T14:49:26;22.70;99.90
35960;DHT22;22043;50.970;7.192;2022-09-06T14:51:52;22.60;99.90
35960;DHT22;22043;50.970;7.192;2022-09-06T14:54:21;22.50;99.90
35960;DHT22;22043;50.970;7.192;2022-09-06T14:56:47;22.70;99.90
35960;DHT22;22043;50.970;7.192;2022-09-06T14:59:13;23.20;99.90
35960;DHT22;22043;50.970;7.192;2022-09-06T15:01:39;23.60;98.20
35960;DHT22;22043;50.970;7.192;2022-09-06T15:04:07;23.70;97.90
35960;DHT22;22043;50.970;7.192;2022-09-06T15:06:34;23.50;99.20
35960;DHT22;22043;50.970;7.192;2022-09-06T15:09:02;23.40;99.90
35960;DHT22;22043;50.970;7.192;2022-09-06T15:11:38;23.20;99.60
35960;DHT22;22043;50.970;7.192;2022-09-06T15:14:15;23.20;99.20
35960;DHT22;22043;50.970;7.192;2022-09-06T15:16:42;23.40;98.40
35960;DHT22;22043;50.970;7.192;2022-09-06T15:19:08;23.60;97.70
35960;DHT22;22043;50.970;7.192;2022-09-06T15:21:35;23.70;96.80
35960;DHT22;22043;50.970;7.192;2022-09-06T15:24:01;23.80;96.80
35960;DHT22;22043;50.970;7.192;2022-09-06T15:26:27;24.00;95.90
35960;DHT22;22043;50.970;7.192;2022-09-06T15:28:53;24.10;94.70
35960;DHT22;22043;50.970;7.192;2022-09-06T15:31:19;24.10;93.60
35960;DHT22;22043;50.970;7.192;2022-09-06T15:33:45;24.10;93.90
35960;DHT22;22043;50.970;7.192;2022-09-06T15:36:14;24.10;93.50
35960;DHT22;22043;50.970;7.192;2022-09-06T15:38:44;24.30;93.40
35960;DHT22;22043;50.970;7.192;2022-09-06T15:41:22;24.60;91.90
35960;DHT22;22043;50.970;7.192;2022-09-06T15:43:52;24.70;91.90
35960;DHT22;22043;50.970;7.192;2022-09-06T15:46:49;24.70;91.60
35960;DHT22;22043;50.970;7.192;2022-09-06T15:49:23;24.80;91.10
35960;DHT22;22043;50.970;7.192;2022-09-06T15:51:49;24.50;91.40
35960;DHT22;22043;50.970;7.192;2022-09-06T15:54:17;24.40;91.80
35960;DHT22;22043;50.970;7.192;2022-09-06T15:56:43;24.40;90.70
35960;DHT22;22043;50.970;7.192;2022-09-06T15:59:09;24.30;91.00
35960;DHT22;22043;50.970;7.192;2022-09-06T16:01:35;24.00;94.40
35960;DHT22;22043;50.970;7.192;2022-09-06T16:04:02;23.90;92.30
35960;DHT22;22043;50.970;7.192;2022-09-06T16:06:38;23.70;93.00
35960;DHT22;22043;50.970;7.192;2022-09-06T16:09:09;23.70;93.30
35960;DHT22;22043;50.970;7.192;2022-09-06T16:11:36;23.70;92.90
35960;DHT22;22043;50.970;7.192;2022-09-06T16:14:06;23.60;93.30
35960;DHT22;22043;50.970;7.192;2022-09-06T16:16:34;23.50;93.40
35960;DHT22;22043;50.970;7.192;2022-09-06T16:19:00;23.60;92.90
35960;DHT22;22043;50.970;7.192;2022-09-06T16:21:28;23.50;94.30
35960;DHT22;22043;50.970;7.192;2022-09-06T16:24:05;23.60;94.20
35960;DHT22;22043;50.970;7.192;2022-09-06T16:26:37;23.50;93.90
35960;DHT22;22043;50.970;7.192;2022-09-06T16:29:04;23.40;94.10
35960;DHT22;22043;50.970;7.192;2022-09-06T16:31:30;23.30;96.30
35960;DHT22;22043;50.970;7.192;2022-09-06T16:33:58;23.20;95.30
35960;DHT22;22043;50.970;7.192;2022-09-06T16:36:25;23.20;93.90
35960;DHT22;22043;50.970;7.192;2022-09-06T16:38:51;23.20;93.30
35960;DHT22;22043;50.970;7.192;2022-09-06T16:43:48;23.10;95.90
35960;DHT22;22043;50.970;7.192;2022-09-06T16:46:14;22.90;97.00
35960;DHT22;22043;50.970;7.192;2022-09-06T16:48:40;23.00;95.30
35960;DHT22;22043;50.970;7.192;2022-09-06T16:51:17;22.90;96.50
35960;DHT22;22043;50.970;7.192;2022-09-06T16:53:44;22.70;98.30
35960;DHT22;22043;50.970;7.192;2022-09-06T16:56:13;22.60;97.90
35960;DHT22;22043;50.970;7.192;2022-09-06T16:58:40;22.60;97.60
35960;DHT22;22043;50.970;7.192;2022-09-06T17:01:07;22.60;97.60
35960;DHT22;22043;50.970;7.192;2022-09-06T17:03:37;22.50;98.20
35960;DHT22;22043;50.970;7.192;2022-09-06T17:06:04;22.40;99.90
35960;DHT22;22043;50.970;7.192;2022-09-06T17:08:31;22.30;99.90
35960;DHT22;22043;50.970;7.192;2022-09-06T17:11:20;22.20;99.90
35960;DHT22;22043;50.970;7.192;2022-09-06T17:13:49;22.10;99.90
35960;DHT22;22043;50.970;7.192;2022-09-06T17:16:15;21.90;99.90
35960;DHT22;22043;50.970;7.192;2022-09-06T17:19:00;21.80;99.90
35960;DHT22;22043;50.970;7.192;2022-09-06T17:21:27;21.70;99.90
35960;DHT22;22043;50.970;7.192;2022-09-06T17:23:53;21.60;99.90
35960;DHT22;22043;50.970;7.192;2022-09-06T17:26:20;21.60;99.90
35960;DHT22;22043;50.970;7.192;2022-09-06T17:28:46;21.50;99.90
35960;DHT22;22043;50.970;7.192;2022-09-06T17:31:12;21.40;99.90
35960;DHT22;22043;50.970;7.192;2022-09-06T17:33:38;21.40;99.90